createdAt,value
2019-01-23T00:02:19.626Z,39.30
2019-01-23T00:04:46.264Z,40.97
2019-01-23T00:07:12.900Z,39.90
2019-01-23T00:09:39.457Z,39.10
2019-01-23T00:12:06.291Z,39.87
2019-01-23T00:14:33.037Z,39.30
2019-01-23T00:16:59.776Z,39.00
2019-01-23T00:19:26.520Z,38.70
2019-01-23T00:21:53.252Z,38.57
2019-01-23T00:24:20.001Z,40.03
2019-01-23T00:26:46.434Z,40.23
2019-01-23T00:29:13.076Z,40.80
2019-01-23T00:31:39.607Z,39.33
2019-01-23T00:34:06.263Z,39.20
2019-01-23T00:36:32.790Z,38.33
2019-01-23T00:38:59.432Z,39.23
2019-01-23T00:41:26.080Z,38.87
2019-01-23T00:43:52.905Z,40.40
2019-01-23T00:46:19.676Z,39.43
2019-01-23T00:48:46.328Z,39.47
2019-01-23T00:51:12.941Z,39.27
2019-01-23T00:53:40.393Z,40.37
2019-01-23T00:56:06.905Z,40.87
2019-01-23T00:58:33.962Z,38.87
2019-01-23T01:01:01.763Z,38.83
2019-01-23T01:03:28.625Z,40.40
2019-01-23T01:05:55.151Z,42.97
2019-01-23T01:08:21.716Z,38.40
2019-01-23T01:10:48.142Z,38.40
2019-01-23T01:13:14.693Z,38.43
2019-01-23T01:15:41.255Z,38.60
2019-01-23T01:18:07.880Z,38.67
2019-01-23T01:20:34.430Z,38.90
2019-01-23T01:23:00.952Z,39.00
2019-01-23T01:25:27.404Z,38.70
2019-01-23T01:27:53.919Z,40.53
2019-01-23T01:30:22.404Z,40.73
2019-01-23T01:32:48.834Z,41.57
2019-01-23T01:35:15.485Z,37.70
2019-01-23T01:37:42.004Z,40.77
2019-01-23T01:40:12.563Z,39.27
2019-01-23T01:42:39.265Z,38.93
2019-01-23T01:45:07.634Z,40.03
2019-01-23T01:47:34.841Z,37.83
2019-01-23T01:50:06.107Z,39.63
2019-01-23T01:52:32.636Z,40.10
2019-01-23T01:54:59.194Z,38.43
2019-01-23T01:57:25.709Z,38.53
2019-01-23T01:59:52.262Z,39.50
2019-01-23T02:02:18.775Z,37.60
2019-01-23T02:04:45.425Z,37.73
2019-01-23T02:07:12.000Z,38.47
2019-01-23T02:09:38.457Z,40.10
2019-01-23T02:12:04.981Z,38.73
2019-01-23T02:14:31.421Z,39.77
2019-01-23T02:16:57.944Z,38.90
2019-01-23T02:19:24.477Z,38.67
2019-01-23T02:21:50.995Z,40.40
2019-01-23T02:24:17.539Z,40.07
2019-01-23T02:26:44.161Z,38.97
2019-01-23T02:29:10.914Z,41.17
2019-01-23T02:31:37.528Z,41.07
2019-01-23T02:34:04.148Z,38.90
2019-01-23T02:36:30.702Z,38.50
2019-01-23T02:38:57.211Z,38.67
2019-01-23T02:41:23.761Z,39.40
2019-01-23T02:43:50.297Z,41.87
2019-01-23T02:46:16.830Z,38.70
2019-01-23T02:48:43.354Z,39.20
2019-01-23T02:51:09.915Z,39.80
2019-01-23T02:53:36.421Z,39.03
2019-01-23T02:56:03.468Z,40.33
2019-01-23T02:58:30.148Z,37.10
2019-01-23T03:00:56.697Z,40.27
2019-01-23T03:03:24.222Z,38.30
2019-01-23T03:05:50.863Z,39.20
2019-01-23T03:08:18.288Z,36.67
2019-01-23T03:10:44.848Z,38.80
2019-01-23T03:13:11.569Z,38.70
2019-01-23T03:15:38.208Z,40.00
2019-01-23T03:18:04.744Z,40.27
2019-01-23T03:20:31.292Z,35.53
2019-01-23T03:22:57.845Z,36.73
2019-01-23T03:25:24.402Z,37.67
2019-01-23T03:27:50.921Z,38.20
2019-01-23T03:30:19.489Z,36.47
2019-01-23T03:32:46.306Z,36.70
2019-01-23T03:35:13.045Z,35.57
2019-01-23T03:37:39.764Z,36.13
2019-01-23T03:40:14.602Z,36.90
2019-01-23T03:42:41.109Z,35.73
2019-01-23T03:45:09.766Z,35.93
2019-01-23T03:47:36.381Z,35.97
2019-01-23T03:50:10.049Z,37.07
2019-01-23T03:52:37.699Z,34.40
2019-01-23T03:55:07.720Z,37.63
2019-01-23T03:57:35.482Z,37.17
2019-01-23T04:00:05.506Z,34.13
2019-01-23T04:02:32.051Z,35.20
2019-01-23T04:04:58.567Z,35.30
2019-01-23T04:07:25.319Z,37.23
2019-01-23T04:09:52.738Z,38.33
2019-01-23T04:12:19.386Z,36.70
2019-01-23T04:14:46.013Z,36.80
2019-01-23T04:17:12.592Z,36.00
2019-01-23T04:19:39.105Z,36.20
2019-01-23T04:22:05.722Z,35.07
2019-01-23T04:24:32.426Z,36.23
2019-01-23T04:26:59.676Z,37.33
2019-01-23T04:29:26.427Z,36.07
2019-01-23T04:31:53.067Z,37.83
2019-01-23T04:34:19.635Z,36.53
2019-01-23T04:36:46.267Z,38.53
2019-01-23T04:39:12.911Z,37.97
2019-01-23T04:41:39.537Z,37.50
2019-01-23T04:44:07.691Z,37.27
2019-01-23T04:46:34.426Z,38.97
2019-01-23T04:49:01.982Z,39.00
2019-01-23T04:51:34.053Z,37.87
2019-01-23T04:54:01.818Z,39.13
2019-01-23T04:56:28.350Z,38.40
2019-01-23T04:58:55.001Z,40.27
2019-01-23T05:01:21.834Z,38.43
2019-01-23T05:03:48.485Z,36.77
2019-01-23T05:06:15.837Z,40.83
2019-01-23T05:08:42.425Z,38.87
2019-01-23T05:11:08.956Z,41.17
2019-01-23T05:13:35.535Z,38.50
2019-01-23T05:16:02.053Z,42.23
2019-01-23T05:18:28.601Z,39.90
2019-01-23T05:20:55.209Z,38.80
2019-01-23T05:23:21.872Z,41.90
2019-01-23T05:25:48.393Z,40.47
2019-01-23T05:28:16.854Z,39.70
2019-01-23T05:30:45.086Z,42.63
2019-01-23T05:33:11.630Z,42.50
2019-01-23T05:35:39.849Z,41.93
2019-01-23T05:38:06.505Z,41.53
2019-01-23T05:40:33.029Z,42.30
2019-01-23T05:42:59.579Z,43.10
2019-01-23T05:45:26.237Z,45.30
2019-01-23T05:47:53.448Z,39.27
2019-01-23T05:50:20.221Z,43.27
2019-01-23T05:52:48.035Z,42.13
2019-01-23T05:55:14.889Z,43.47
2019-01-23T05:57:43.313Z,44.07
2019-01-23T06:00:12.982Z,40.20
2019-01-23T06:02:39.618Z,40.87
2019-01-23T06:05:07.996Z,43.77
2019-01-23T06:07:34.721Z,40.90
2019-01-23T06:10:02.075Z,44.63
2019-01-23T06:12:28.803Z,43.20
2019-01-23T06:14:55.350Z,43.27
2019-01-23T06:17:22.876Z,43.77
2019-01-23T06:19:49.549Z,39.60
2019-01-23T06:22:16.155Z,41.73
2019-01-23T06:24:42.705Z,40.10
2019-01-23T06:27:09.336Z,40.40
2019-01-23T06:29:35.983Z,39.00
2019-01-23T06:32:02.821Z,40.97
2019-01-23T06:34:29.375Z,44.60
2019-01-23T06:36:56.001Z,43.03
2019-01-23T06:39:22.548Z,42.97
2019-01-23T06:41:49.204Z,43.20
2019-01-23T06:44:15.834Z,42.90
2019-01-23T06:46:42.462Z,39.87
2019-01-23T06:49:09.121Z,41.40
2019-01-23T06:51:36.445Z,42.47
2019-01-23T06:54:03.253Z,44.40
2019-01-23T06:56:30.382Z,38.87
2019-01-23T06:58:57.022Z,40.03
2019-01-23T07:01:24.548Z,40.37
2019-01-23T07:03:52.104Z,37.53
2019-01-23T07:06:18.822Z,37.83
2019-01-23T07:08:45.574Z,40.87
2019-01-23T07:11:12.185Z,39.13
2019-01-23T07:13:38.843Z,39.27
2019-01-23T07:16:05.504Z,39.73
2019-01-23T07:18:32.136Z,41.67
2019-01-23T07:20:58.833Z,37.40
2019-01-23T07:23:25.361Z,41.50
2019-01-23T07:25:51.913Z,39.33
2019-01-23T07:28:18.436Z,40.03
2019-01-23T07:30:45.097Z,43.23
2019-01-23T07:33:11.623Z,41.10
2019-01-23T07:35:38.178Z,41.27
2019-01-23T07:38:04.846Z,41.47
2019-01-23T07:40:31.607Z,41.60
2019-01-23T07:42:58.130Z,38.37
2019-01-23T07:45:26.285Z,39.50
2019-01-23T07:47:52.914Z,39.27
2019-01-23T07:50:19.610Z,39.97
2019-01-23T07:52:46.332Z,38.90
2019-01-23T07:55:15.185Z,40.87
2019-01-23T07:57:43.593Z,39.90
2019-01-23T08:00:18.309Z,37.43
2019-01-23T08:02:45.634Z,38.97
2019-01-23T08:05:19.563Z,38.07
2019-01-23T08:07:44.825Z,37.87
2019-01-23T08:10:14.286Z,38.67
2019-01-23T08:12:50.366Z,37.57
2019-01-23T08:15:23.057Z,36.63
2019-01-23T08:17:49.574Z,40.20
2019-01-23T08:20:20.844Z,39.03
2019-01-23T08:22:47.490Z,38.67
2019-01-23T08:25:14.643Z,39.87
2019-01-23T08:27:41.169Z,38.90
2019-01-23T08:30:11.328Z,39.53
2019-01-23T08:32:37.946Z,39.37
2019-01-23T08:35:05.910Z,40.63
2019-01-23T08:37:32.523Z,40.40
2019-01-23T08:39:59.177Z,38.87
2019-01-23T08:42:25.890Z,40.37
2019-01-23T08:44:52.536Z,38.13
2019-01-23T08:47:19.166Z,41.03
2019-01-23T08:49:45.896Z,40.17
2019-01-23T08:52:12.530Z,39.47
2019-01-23T08:54:39.177Z,40.87
2019-01-23T08:57:05.710Z,35.97
2019-01-23T08:59:32.255Z,40.60
2019-01-23T09:01:58.772Z,39.53
2019-01-23T09:04:25.326Z,38.80
2019-01-23T09:06:51.840Z,36.03
2019-01-23T09:09:18.413Z,38.57
2019-01-23T09:11:45.243Z,38.37
2019-01-23T09:14:11.793Z,37.77
2019-01-23T09:16:38.322Z,37.50
2019-01-23T09:19:04.916Z,37.20
2019-01-23T09:21:31.634Z,37.63
2019-01-23T09:23:58.984Z,38.73
2019-01-23T09:26:25.604Z,37.97
2019-01-23T09:28:52.125Z,37.80
2019-01-23T09:31:24.443Z,35.87
2019-01-23T09:33:57.712Z,37.70
2019-01-23T09:36:29.421Z,38.20
2019-01-23T09:39:16.387Z,36.10
2019-01-23T09:41:49.922Z,35.30
2019-01-23T09:44:37.140Z,37.70
2019-01-23T09:47:07.684Z,37.10
2019-01-23T09:49:50.506Z,35.80
2019-01-23T09:52:32.794Z,37.13
2019-01-23T09:54:59.342Z,36.70
2019-01-23T09:57:26.064Z,39.60
2019-01-23T09:59:52.608Z,35.40
2019-01-23T10:02:19.133Z,35.90
2019-01-23T10:04:45.785Z,38.60
2019-01-23T10:07:12.319Z,38.87
2019-01-23T10:09:38.904Z,36.97
2019-01-23T10:12:05.530Z,35.30
2019-01-23T10:14:32.264Z,37.17
2019-01-23T10:16:59.621Z,38.80
2019-01-23T10:19:26.399Z,38.00
2019-01-23T10:21:53.149Z,37.13
2019-01-23T10:24:19.769Z,37.57
2019-01-23T10:26:46.527Z,37.50
2019-01-23T10:29:13.147Z,37.53
2019-01-23T10:31:39.905Z,37.23
2019-01-23T10:34:07.316Z,42.40
2019-01-23T10:36:33.976Z,38.47
2019-01-23T10:39:00.606Z,37.00
2019-01-23T10:41:27.151Z,38.77
2019-01-23T10:43:53.677Z,37.10
2019-01-23T10:46:20.342Z,37.30
2019-01-23T10:48:46.951Z,37.10
2019-01-23T10:51:13.817Z,37.63
2019-01-23T10:53:40.434Z,38.90
2019-01-23T10:56:06.981Z,37.57
2019-01-23T10:58:33.510Z,36.50
2019-01-23T11:01:00.157Z,35.87
2019-01-23T11:03:26.980Z,37.43
2019-01-23T11:05:53.541Z,39.47
2019-01-23T11:08:20.064Z,36.33
2019-01-23T11:10:46.625Z,37.27
2019-01-23T11:13:13.249Z,37.13
2019-01-23T11:15:39.824Z,38.67
2019-01-23T11:18:06.456Z,35.50
2019-01-23T11:20:32.908Z,39.00
2019-01-23T11:22:59.427Z,40.90
2019-01-23T11:25:26.077Z,38.13
2019-01-23T11:27:52.650Z,39.90
2019-01-23T11:30:24.296Z,39.60
2019-01-23T11:32:51.062Z,41.70
2019-01-23T11:35:17.686Z,40.40
2019-01-23T11:37:45.452Z,41.60
2019-01-23T11:40:17.960Z,40.60
2019-01-23T11:42:44.403Z,39.17
2019-01-23T11:45:11.829Z,41.20
2019-01-23T11:47:38.682Z,39.37
2019-01-23T11:50:09.018Z,40.40
2019-01-23T11:52:36.465Z,40.70
2019-01-23T11:55:04.593Z,39.50
2019-01-23T11:57:31.258Z,41.00
2019-01-23T11:59:57.978Z,39.67
2019-01-23T12:02:30.695Z,39.17
2019-01-23T12:04:53.868Z,39.83
2019-01-23T12:07:20.629Z,39.97
2019-01-23T12:09:47.334Z,40.10
2019-01-23T12:12:13.981Z,41.07
2019-01-23T12:14:40.495Z,36.23
2019-01-23T12:17:07.158Z,38.17
2019-01-23T12:19:33.694Z,40.20
2019-01-23T12:22:00.235Z,36.83
2019-01-23T12:24:26.669Z,39.13
2019-01-23T12:26:53.225Z,39.27
2019-01-23T12:29:19.783Z,38.77
2019-01-23T12:31:46.448Z,38.77
2019-01-23T12:34:12.972Z,36.70
2019-01-23T12:36:39.736Z,36.67
2019-01-23T12:39:08.134Z,35.93
2019-01-23T12:41:34.673Z,36.23
2019-01-23T12:44:01.207Z,37.47
2019-01-23T12:46:27.865Z,38.60
2019-01-23T12:48:54.488Z,36.70
2019-01-23T12:51:21.145Z,38.80
2019-01-23T12:53:47.761Z,37.47
2019-01-23T12:56:14.394Z,40.17
2019-01-23T12:58:41.050Z,39.33
2019-01-23T13:01:07.845Z,38.27
2019-01-23T13:03:34.605Z,39.00
2019-01-23T13:06:01.370Z,39.20
2019-01-23T13:08:27.960Z,39.30
2019-01-23T13:10:54.889Z,39.87
2019-01-23T13:13:23.892Z,40.10
2019-01-23T13:15:53.058Z,38.17
2019-01-23T13:18:19.752Z,37.10
2019-01-23T13:20:46.674Z,36.03
2019-01-23T13:23:19.459Z,37.07
2019-01-23T13:25:41.875Z,38.20
2019-01-23T13:28:09.656Z,39.67
2019-01-23T13:30:36.992Z,39.47
2019-01-23T13:33:04.573Z,38.37
2019-01-23T13:35:33.986Z,39.80
2019-01-23T13:38:01.965Z,40.80
2019-01-23T13:40:32.561Z,39.57
2019-01-23T13:43:00.210Z,40.47
2019-01-23T13:45:27.389Z,40.80
2019-01-23T13:47:54.626Z,38.90
2019-01-23T13:50:21.597Z,39.57
2019-01-23T13:52:48.670Z,41.20
2019-01-23T13:55:18.046Z,40.73
2019-01-23T13:57:44.883Z,40.43
2019-01-23T14:00:15.655Z,40.07
2019-01-23T14:02:43.168Z,39.90
2019-01-23T14:05:10.537Z,42.10
2019-01-23T14:07:38.406Z,39.97
2019-01-23T14:10:09.157Z,40.43
2019-01-23T14:12:35.778Z,39.60
2019-01-23T14:15:06.989Z,39.57
2019-01-23T14:17:34.524Z,39.73
2019-01-23T14:20:03.638Z,41.63
2019-01-23T14:22:31.493Z,41.37
2019-01-23T14:24:59.331Z,42.80
2019-01-23T14:27:27.028Z,39.00
2019-01-23T14:29:54.213Z,40.80
2019-01-23T14:32:22.077Z,40.50
2019-01-23T14:34:49.729Z,41.17
2019-01-23T14:37:17.469Z,43.37
2019-01-23T14:39:45.290Z,40.67
2019-01-23T14:42:12.152Z,42.13
2019-01-23T14:44:39.945Z,39.20
2019-01-23T14:47:07.950Z,40.33
2019-01-23T14:49:35.937Z,38.40
2019-01-23T14:52:03.846Z,41.77
2019-01-23T14:54:30.872Z,40.80
2019-01-23T14:56:58.196Z,42.60
2019-01-23T14:59:25.183Z,42.17
2019-01-23T15:01:52.901Z,41.77
2019-01-23T15:04:21.429Z,40.83
2019-01-23T15:06:49.558Z,43.37
2019-01-23T15:09:17.368Z,41.07
2019-01-23T15:11:45.337Z,43.70
2019-01-23T15:14:12.768Z,42.77
2019-01-23T15:16:40.666Z,42.70
2019-01-23T15:19:08.382Z,40.57
2019-01-23T15:21:36.306Z,45.63
2019-01-23T15:24:04.318Z,42.50
2019-01-23T15:26:32.172Z,42.50
2019-01-23T15:29:00.561Z,43.37
2019-01-23T15:31:28.787Z,41.60
2019-01-23T15:33:57.314Z,41.63
2019-01-23T15:36:25.540Z,43.30
2019-01-23T15:38:53.876Z,42.57
2019-01-23T15:41:22.352Z,44.00
2019-01-23T15:43:50.985Z,40.67
2019-01-23T15:46:19.385Z,42.23
2019-01-23T15:48:48.513Z,40.00
2019-01-23T15:51:17.006Z,41.20
2019-01-23T15:53:45.332Z,43.57
2019-01-23T15:56:14.572Z,42.20
2019-01-23T15:58:42.598Z,41.40
2019-01-23T16:01:10.931Z,42.17
2019-01-23T16:03:39.095Z,42.00
2019-01-23T16:06:07.414Z,41.43
2019-01-23T16:08:35.294Z,45.60
2019-01-23T16:11:03.455Z,45.90
2019-01-23T16:13:31.332Z,46.13
2019-01-23T16:15:59.736Z,46.50
2019-01-23T16:18:27.726Z,47.33
2019-01-23T16:20:55.740Z,44.67
2019-01-23T16:23:23.811Z,48.30
2019-01-23T16:25:52.921Z,49.23
2019-01-23T16:28:20.931Z,50.20
2019-01-23T16:30:49.159Z,46.97
2019-01-23T16:33:17.478Z,49.57
2019-01-23T16:35:47.233Z,47.47
2019-01-23T16:38:15.978Z,46.43
2019-01-23T16:40:44.112Z,48.17
2019-01-23T16:43:13.059Z,48.97
2019-01-23T16:45:41.877Z,49.10
2019-01-23T16:48:10.165Z,50.30
2019-01-23T16:50:38.587Z,48.60
2019-01-23T16:53:06.668Z,48.30
2019-01-23T16:55:34.890Z,48.07
2019-01-23T16:58:04.022Z,47.90
2019-01-23T17:00:32.564Z,46.80
2019-01-23T17:03:02.340Z,47.90
2019-01-23T17:05:31.520Z,47.20
2019-01-23T17:08:01.073Z,46.73
2019-01-23T17:10:29.206Z,48.10
2019-01-23T17:12:57.534Z,45.60
2019-01-23T17:15:26.070Z,44.77
2019-01-23T17:17:54.801Z,47.27
2019-01-23T17:20:25.652Z,42.10
2019-01-23T17:22:54.118Z,46.70
2019-01-23T17:25:22.441Z,47.90
2019-01-23T17:27:51.080Z,47.87
2019-01-23T17:30:19.613Z,45.57
2019-01-23T17:32:49.226Z,43.00
2019-01-23T17:35:18.663Z,44.80
2019-01-23T17:37:47.101Z,45.47
2019-01-23T17:40:18.323Z,43.47
2019-01-23T17:42:46.949Z,46.10
2019-01-23T17:45:18.002Z,44.57
2019-01-23T17:47:46.910Z,45.53
2019-01-23T17:50:17.456Z,48.07
2019-01-23T17:52:45.927Z,44.17
2019-01-23T17:55:28.860Z,44.93
2019-01-23T17:57:58.857Z,45.40
2019-01-23T18:00:30.415Z,44.40
2019-01-23T18:02:58.693Z,45.27
2019-01-23T18:05:27.646Z,44.13
2019-01-23T18:07:56.060Z,42.53
2019-01-23T18:10:24.697Z,45.30
2019-01-23T18:12:53.321Z,46.03
2019-01-23T18:15:27.045Z,43.40
2019-01-23T18:17:56.121Z,43.40
2019-01-23T18:20:26.680Z,46.07
2019-01-23T18:22:57.026Z,46.20
2019-01-23T18:25:26.213Z,44.73
2019-01-23T18:27:54.895Z,43.17
2019-01-23T18:30:37.806Z,46.70
2019-01-23T18:33:08.939Z,46.93
2019-01-23T18:36:04.415Z,47.80
2019-01-23T18:38:44.404Z,48.03
2019-01-23T18:41:27.830Z,46.90
2019-01-23T18:44:04.832Z,49.43
2019-01-23T18:46:47.799Z,46.17
2019-01-23T18:49:39.878Z,47.67
2019-01-23T18:52:13.879Z,46.10
2019-01-23T18:54:43.236Z,46.90
2019-01-23T18:57:20.057Z,48.47
2019-01-23T18:59:48.688Z,46.73
2019-01-23T19:02:19.515Z,47.87
2019-01-23T19:04:49.640Z,45.43
2019-01-23T19:07:19.460Z,44.10
2019-01-23T19:09:49.011Z,46.90
2019-01-23T19:12:18.055Z,45.37
2019-01-23T19:14:47.097Z,43.27
2019-01-23T19:17:15.986Z,42.00
2019-01-23T19:19:44.921Z,43.70
2019-01-23T19:22:13.865Z,42.43
2019-01-23T19:24:42.813Z,42.90
2019-01-23T19:27:11.963Z,43.17
2019-01-23T19:29:41.097Z,45.03
2019-01-23T19:32:10.252Z,44.50
2019-01-23T19:34:39.347Z,42.70
2019-01-23T19:37:08.129Z,44.57
2019-01-23T19:39:37.016Z,43.63
2019-01-23T19:42:06.169Z,42.53
2019-01-23T19:44:35.117Z,42.87
2019-01-23T19:47:04.544Z,42.10
2019-01-23T19:49:35.324Z,41.60
2019-01-23T19:52:04.453Z,45.83
2019-01-23T19:54:33.477Z,45.00
2019-01-23T19:57:02.258Z,44.57
2019-01-23T19:59:32.865Z,44.93
2019-01-23T20:02:02.029Z,43.27
2019-01-23T20:04:31.720Z,44.90
2019-01-23T20:07:00.896Z,42.97
2019-01-23T20:09:29.939Z,42.87
2019-01-23T20:12:00.365Z,39.13
2019-01-23T20:14:29.837Z,40.73
2019-01-23T20:16:58.907Z,41.20
2019-01-23T20:19:28.365Z,40.83
2019-01-23T20:21:57.313Z,39.83
2019-01-23T20:24:26.278Z,41.10
2019-01-23T20:26:55.410Z,42.40
2019-01-23T20:29:24.048Z,41.17
2019-01-23T20:31:52.979Z,40.03
2019-01-23T20:34:22.361Z,38.47
2019-01-23T20:36:51.420Z,41.50
2019-01-23T20:39:20.473Z,38.00
2019-01-23T20:41:49.676Z,39.97
2019-01-23T20:44:19.548Z,37.17
2019-01-23T20:46:49.034Z,36.80
2019-01-23T20:49:19.110Z,35.27
2019-01-23T20:51:48.921Z,36.83
2019-01-23T20:54:19.231Z,41.77
2019-01-23T20:56:48.502Z,36.50
2019-01-23T20:59:17.952Z,38.17
2019-01-23T21:01:47.930Z,35.63
2019-01-23T21:04:17.690Z,37.93
2019-01-23T21:06:46.949Z,38.80
2019-01-23T21:09:16.152Z,35.83
2019-01-23T21:11:45.141Z,36.70
2019-01-23T21:14:14.256Z,35.70
2019-01-23T21:16:43.401Z,35.63
2019-01-23T21:19:12.244Z,37.57
2019-01-23T21:21:41.394Z,38.07
2019-01-23T21:24:10.493Z,36.50
2019-01-23T21:26:39.335Z,34.40
2019-01-23T21:29:09.923Z,36.17
2019-01-23T21:31:38.463Z,36.03
2019-01-23T21:34:08.060Z,35.63
2019-01-23T21:36:36.912Z,35.97
2019-01-23T21:39:08.718Z,37.77
2019-01-23T21:41:37.344Z,34.40
2019-01-23T21:44:06.138Z,36.57
2019-01-23T21:46:35.087Z,36.60
2019-01-23T21:49:04.372Z,34.53
2019-01-23T21:51:33.091Z,35.17
2019-01-23T21:54:01.572Z,34.03
2019-01-23T21:56:30.196Z,35.37
2019-01-23T21:58:59.119Z,32.60
2019-01-23T22:01:27.751Z,33.93
2019-01-23T22:03:56.894Z,32.50
2019-01-23T22:06:25.152Z,32.60
2019-01-23T22:08:54.106Z,33.10
2019-01-23T22:11:22.947Z,32.30
2019-01-23T22:13:51.180Z,31.67
2019-01-23T22:16:18.949Z,34.17
2019-01-23T22:18:47.668Z,32.50
2019-01-23T22:21:16.059Z,34.43
2019-01-23T22:23:43.849Z,33.07
2019-01-23T22:26:12.465Z,32.37
2019-01-23T22:28:40.976Z,32.57
2019-01-23T22:31:08.711Z,31.00
2019-01-23T22:33:36.204Z,29.30
2019-01-23T22:36:03.219Z,28.80
2019-01-23T22:38:29.761Z,29.37
2019-01-23T22:40:56.380Z,27.83
2019-01-23T22:43:23.121Z,28.53
2019-01-23T22:45:49.813Z,28.70
2019-01-23T22:48:16.883Z,28.50
2019-01-23T22:50:44.300Z,27.43
2019-01-23T22:53:11.182Z,27.50
2019-01-23T22:55:37.798Z,25.70
2019-01-23T22:58:04.550Z,27.03
2019-01-23T23:00:44.166Z,26.10
2019-01-23T23:03:12.722Z,26.87
2019-01-23T23:05:39.551Z,28.87
2019-01-23T23:08:06.217Z,27.07
2019-01-23T23:10:34.337Z,27.70
2019-01-23T23:13:03.013Z,28.23
2019-01-23T23:15:29.639Z,26.07
2019-01-23T23:17:56.298Z,27.07
2019-01-23T23:20:22.829Z,29.23
2019-01-23T23:22:49.572Z,28.97
2019-01-23T23:25:16.197Z,29.60
2019-01-23T23:27:42.941Z,29.30
2019-01-23T23:30:13.372Z,28.10
2019-01-23T23:32:40.154Z,30.00
2019-01-23T23:35:06.899Z,26.53
2019-01-23T23:37:33.441Z,29.50
2019-01-23T23:40:00.252Z,29.23
2019-01-23T23:42:26.810Z,28.00
2019-01-23T23:44:53.333Z,27.97
2019-01-23T23:47:19.880Z,25.90
2019-01-23T23:49:46.404Z,26.30
2019-01-23T23:52:12.944Z,26.80
2019-01-23T23:54:39.497Z,28.73
2019-01-23T23:57:06.018Z,27.00
2019-01-23T23:59:32.568Z,27.60
